Flight Track Log - Related Links

Times and Time Zones

All times are in EDT time to prevent confusion due to time zone crossing. See the FIN666 flight status page for this flight to view local times or setup timezone preferences in your user account.

Time Position Orientation Groundspeed Altitude Reporting Facility
EDT Latitude Longitude Course Direction KTS MPH feet Rate Location/Type
Sat 08:35:00 AM 55.8520 13.1400 49° Northeast  Level Estimated
Sat 08:36:00 AM 55.9296 13.3027 50° Northeast  Level Estimated
Sat 08:37:00 AM 56.0070 13.4660 50° Northeast  Level Estimated
Sat 08:38:00 AM 56.0878 13.6376 50° Northeast  Level Estimated
Sat 08:39:00 AM 56.1684 13.8100 50° Northeast  Level Estimated
Sat 08:40:00 AM 56.2487 13.9831 50° Northeast  Level Estimated
Sat 08:41:00 AM 56.3288 14.1569 50° Northeast  Level Estimated
Sat 08:42:00 AM 56.4086 14.3315 50° Northeast  Level Estimated
Sat 08:43:00 AM 56.4882 14.5068 51° Northeast  Level Estimated
Sat 08:44:00 AM 56.5675 14.6828 51° Northeast  Level Estimated
Sat 08:45:00 AM 56.6466 14.8595 51° Northeast  Level Estimated
Sat 08:46:00 AM 56.7255 15.0370 51° Northeast  Level Estimated
Sat 08:47:00 AM 56.8040 15.2153 51° Northeast  Level Estimated
Sat 08:48:00 AM 56.8824 15.3943 51° Northeast  Level Estimated
Sat 08:49:00 AM 56.9604 15.5740 51° Northeast  Level Estimated
Sat 08:50:00 AM 57.0382 15.7545 52° Northeast  Level Estimated
Sat 08:51:00 AM 57.1158 15.9358 52° Northeast  Level Estimated
Sat 08:52:00 AM 57.1931 16.1178 52° Northeast  Level Estimated
Sat 08:53:00 AM 57.2701 16.3006 52° Northeast  Level Estimated
Sat 08:54:00 AM 57.3469 16.4841 52° Northeast  Level Estimated
Sat 08:55:00 AM 57.4234 16.6684 52° Northeast  Level Estimated
Sat 08:56:00 AM 57.4996 16.8535 52° Northeast  Level Estimated
Sat 08:57:00 AM 57.5755 17.0394 53° Northeast  Level Estimated
Sat 08:58:00 AM 57.6512 17.2260 53° Northeast  Level Estimated
Sat 08:59:00 AM 57.7266 17.4134 53° Northeast  Level Estimated
Sat 09:00:00 AM 57.8017 17.6016 53° Northeast  Level Estimated
Sat 09:01:00 AM 57.8765 17.7906 53° Northeast  Level Estimated
Sat 09:02:00 AM 57.9511 17.9803 53° Northeast  Level Estimated
Sat 09:03:00 AM 58.0254 18.1709 54° Northeast  Level Estimated
Sat 09:04:00 AM 58.0994 18.3622 54° Northeast  Level Estimated
Sat 09:05:00 AM 58.1731 18.5544 54° Northeast  Level Estimated
Sat 09:06:00 AM 58.2465 18.7473 54° Northeast  Level Estimated
Sat 09:07:00 AM 58.3196 18.9410 54° Northeast  Level Estimated
Sat 09:08:00 AM 58.3924 19.1355 54° Northeast  Level Estimated
Sat 09:09:00 AM 58.4649 19.3309 55° Northeast  Level Estimated
Sat 09:10:00 AM 58.5372 19.5270 55° Northeast  Level Estimated
Sat 09:11:00 AM 58.6091 19.7240 55° Northeast  Level Estimated
Sat 09:12:00 AM 58.6807 19.9217 55° Northeast  Level Estimated
Sat 09:13:00 AM 58.7520 20.1203 55° Northeast  Level Estimated
Sat 09:14:00 AM 58.8231 20.3197 55° Northeast  Level Estimated
Sat 09:15:00 AM 58.8938 20.5199 56° Northeast  Level Estimated
Sat 09:16:00 AM 58.9641 20.7209 56° Northeast  Level Estimated
Sat 09:17:00 AM 59.0342 20.9228 56° Northeast  Level Estimated
Sat 09:18:00 AM 59.1040 21.1254 56° Northeast  Level Estimated
Sat 09:19:00 AM 59.1735 21.3289 56° Northeast  Level Estimated
Sat 09:20:00 AM 59.2426 21.5332 56° Northeast  Level Estimated
Sat 09:21:00 AM 59.3114 21.7384 57° Northeast  Level Estimated
Sat 09:22:00 AM 59.3799 21.9443 57° Northeast  Level Estimated
Sat 09:23:00 AM 59.4480 22.1511 57° Northeast  Level Estimated
Sat 09:24:00 AM 59.5159 22.3588 57° Northeast  Level Estimated
Sat 09:25:00 AM 59.5834 22.5673 57° Northeast  Level Estimated
Sat 09:26:00 AM 59.6505 22.7766 58° Northeast  Level Estimated
Sat 09:27:00 AM 59.7174 22.9867 58° Northeast  Level Estimated
Sat 09:28:00 AM 59.7839 23.1977 58° Northeast  Level Estimated
Sat 09:29:00 AM 59.8500 23.4095 58° Northeast  Level Estimated
Sat 09:30:00 AM 59.9159 23.6222 58° Northeast  Level Estimated
Sat 09:31:00 AM 59.9813 23.8357 58° Northeast  Level Estimated
Sat 09:32:00 AM 60.0465 24.0501 59° Northeast  Level Estimated
Sat 09:33:00 AM 60.1112 24.2653 59° Northeast  Level Estimated
Sat 09:34:00 AM 60.1757 24.4813 59° Northeast  Level Estimated
Sat 09:35:00 AM 60.2397 24.6982 59° Northeast  Level Estimated
Sat 09:36:00 AM 60.3034 24.9160 59° Northeast  Level Estimated
Sat 09:37:00 AM 60.3172 24.9633 60° Northeast  Level Estimated
Sat 09:38:00 AM 60.3172 24.9633 37° Northeast  Level Estimated
Sat 09:39:00 AM 60.3172 24.9633 37° Northeast  Level Estimated
Sat 09:40:00 AM 60.3172 24.9633 37° Northeast  Level Estimated
Sat 09:41:00 AM 60.3172 24.9633 37° Northeast  Level Estimated
Sat 09:42:00 AM 60.3172 24.9633 37° Northeast  Level Estimated
Sat 09:43:00 AM 60.3172 24.9633 37° Northeast  Level Estimated
Sat 09:44:00 AM 60.3172 24.9633 37° Northeast  Level Estimated
Sat 09:45:00 AM 60.3172 24.9633 37° Northeast  Level Estimated
Sat 09:46:00 AM 60.3172 24.9633 37° Northeast  Level Estimated
Sat 09:47:00 AM 60.3172 24.9633 37° Northeast  Level Estimated
Sat 09:48:00 AM 60.3172 24.9633 37° Northeast  Level Estimated
Sat 09:49:00 AM 60.3172 24.9633 37° Northeast  Level Estimated
Sat 09:50:00 AM 60.3172 24.9633 37° Northeast  Level Estimated

Login

Don't have an account? Register now (free) for customized features, flight alerts, and more!